sensor_id;sensor_type;location;lat;lon;timestamp;P1;durP1;ratioP1;P2;durP2;ratioP2
10098;SDS011;5089;42.656;23.374;2022-07-29T00:01:59;6.77;;;6.17;;
10098;SDS011;5089;42.656;23.374;2022-07-29T00:04:26;7.70;;;6.40;;
10098;SDS011;5089;42.656;23.374;2022-07-29T00:06:53;10.27;;;6.20;;
10098;SDS011;5089;42.656;23.374;2022-07-29T00:09:20;6.67;;;6.07;;
10098;SDS011;5089;42.656;23.374;2022-07-29T00:11:47;7.40;;;6.03;;
10098;SDS011;5089;42.656;23.374;2022-07-29T00:14:17;6.67;;;6.00;;
10098;SDS011;5089;42.656;23.374;2022-07-29T00:16:45;7.17;;;5.93;;
10098;SDS011;5089;42.656;23.374;2022-07-29T00:19:21;6.93;;;6.27;;
10098;SDS011;5089;42.656;23.374;2022-07-29T00:21:48;6.77;;;6.10;;
10098;SDS011;5089;42.656;23.374;2022-07-29T00:27:21;7.33;;;6.63;;
10098;SDS011;5089;42.656;23.374;2022-07-29T00:29:48;7.83;;;6.23;;
10098;SDS011;5089;42.656;23.374;2022-07-29T00:32:17;10.00;;;6.50;;
10098;SDS011;5089;42.656;23.374;2022-07-29T00:34:44;6.60;;;6.00;;
10098;SDS011;5089;42.656;23.374;2022-07-29T00:37:28;7.33;;;6.67;;
10098;SDS011;5089;42.656;23.374;2022-07-29T00:39:55;10.10;;;6.87;;
10098;SDS011;5089;42.656;23.374;2022-07-29T00:42:22;7.13;;;6.33;;
10098;SDS011;5089;42.656;23.374;2022-07-29T00:44:49;7.10;;;6.40;;
10098;SDS011;5089;42.656;23.374;2022-07-29T00:47:18;9.03;;;6.80;;
10098;SDS011;5089;42.656;23.374;2022-07-29T00:49:46;6.27;;;5.77;;
10098;SDS011;5089;42.656;23.374;2022-07-29T00:52:13;7.10;;;6.40;;
10098;SDS011;5089;42.656;23.374;2022-07-29T00:54:42;7.60;;;6.87;;
10098;SDS011;5089;42.656;23.374;2022-07-29T00:57:16;7.13;;;6.40;;
10098;SDS011;5089;42.656;23.374;2022-07-29T00:59:50;7.00;;;6.20;;
10098;SDS011;5089;42.656;23.374;2022-07-29T01:02:18;7.10;;;6.50;;
10098;SDS011;5089;42.656;23.374;2022-07-29T01:04:45;8.60;;;6.73;;
10098;SDS011;5089;42.656;23.374;2022-07-29T01:07:12;7.27;;;6.30;;
10098;SDS011;5089;42.656;23.374;2022-07-29T01:09:39;7.20;;;6.00;;
10098;SDS011;5089;42.656;23.374;2022-07-29T01:12:08;8.63;;;6.43;;
10098;SDS011;5089;42.656;23.374;2022-07-29T01:14:38;11.70;;;6.37;;
10098;SDS011;5089;42.656;23.374;2022-07-29T01:17:10;6.77;;;5.63;;
10098;SDS011;5089;42.656;23.374;2022-07-29T01:19:51;9.60;;;6.23;;
10098;SDS011;5089;42.656;23.374;2022-07-29T01:22:28;8.30;;;6.63;;
10098;SDS011;5089;42.656;23.374;2022-07-29T01:28:16;7.47;;;6.50;;
10098;SDS011;5089;42.656;23.374;2022-07-29T01:31:03;7.57;;;6.73;;
10098;SDS011;5089;42.656;23.374;2022-07-29T01:33:32;8.07;;;7.37;;
10098;SDS011;5089;42.656;23.374;2022-07-29T01:36:19;8.50;;;7.80;;
10098;SDS011;5089;42.656;23.374;2022-07-29T01:38:53;11.47;;;8.33;;
10098;SDS011;5089;42.656;23.374;2022-07-29T01:41:25;10.63;;;8.27;;
10098;SDS011;5089;42.656;23.374;2022-07-29T01:43:57;9.47;;;8.57;;
10098;SDS011;5089;42.656;23.374;2022-07-29T01:46:30;9.43;;;8.40;;
10098;SDS011;5089;42.656;23.374;2022-07-29T01:49:00;9.20;;;8.30;;
10098;SDS011;5089;42.656;23.374;2022-07-29T01:51:35;9.83;;;8.87;;
10098;SDS011;5089;42.656;23.374;2022-07-29T01:54:08;10.87;;;9.27;;
10098;SDS011;5089;42.656;23.374;2022-07-29T01:56:40;10.07;;;9.03;;
10098;SDS011;5089;42.656;23.374;2022-07-29T01:59:11;10.60;;;9.13;;
10098;SDS011;5089;42.656;23.374;2022-07-29T02:01:39;11.13;;;8.17;;
10098;SDS011;5089;42.656;23.374;2022-07-29T02:04:08;9.57;;;8.53;;
10098;SDS011;5089;42.656;23.374;2022-07-29T02:06:37;8.63;;;7.87;;
10098;SDS011;5089;42.656;23.374;2022-07-29T02:09:06;10.10;;;7.80;;
10098;SDS011;5089;42.656;23.374;2022-07-29T02:11:35;8.57;;;7.77;;
10098;SDS011;5089;42.656;23.374;2022-07-29T02:14:05;8.67;;;7.83;;
10098;SDS011;5089;42.656;23.374;2022-07-29T02:16:35;7.20;;;6.50;;
10098;SDS011;5089;42.656;23.374;2022-07-29T02:19:05;7.63;;;6.50;;
10098;SDS011;5089;42.656;23.374;2022-07-29T02:21:34;6.30;;;5.67;;
10098;SDS011;5089;42.656;23.374;2022-07-29T02:24:02;7.77;;;5.90;;
10098;SDS011;5089;42.656;23.374;2022-07-29T02:26:31;6.03;;;5.53;;
10098;SDS011;5089;42.656;23.374;2022-07-29T02:29:01;6.67;;;5.80;;
10098;SDS011;5089;42.656;23.374;2022-07-29T02:31:29;6.87;;;5.63;;
10098;SDS011;5089;42.656;23.374;2022-07-29T02:34:06;8.73;;;5.63;;
10098;SDS011;5089;42.656;23.374;2022-07-29T02:36:35;8.20;;;6.30;;
10098;SDS011;5089;42.656;23.374;2022-07-29T02:39:15;8.27;;;6.63;;
10098;SDS011;5089;42.656;23.374;2022-07-29T02:41:48;7.87;;;6.17;;
10098;SDS011;5089;42.656;23.374;2022-07-29T02:44:18;9.47;;;5.63;;
10098;SDS011;5089;42.656;23.374;2022-07-29T02:46:47;6.60;;;5.87;;
10098;SDS011;5089;42.656;23.374;2022-07-29T02:49:21;8.20;;;5.60;;
10098;SDS011;5089;42.656;23.374;2022-07-29T02:52:02;8.57;;;5.47;;
10098;SDS011;5089;42.656;23.374;2022-07-29T02:54:34;7.40;;;5.43;;
10098;SDS011;5089;42.656;23.374;2022-07-29T02:57:18;5.97;;;5.43;;
10098;SDS011;5089;42.656;23.374;2022-07-29T02:59:49;6.83;;;5.27;;
10098;SDS011;5089;42.656;23.374;2022-07-29T03:02:21;6.53;;;5.53;;
10098;SDS011;5089;42.656;23.374;2022-07-29T03:04:52;6.57;;;5.87;;
10098;SDS011;5089;42.656;23.374;2022-07-29T03:07:22;5.53;;;5.13;;
10098;SDS011;5089;42.656;23.374;2022-07-29T03:09:49;6.53;;;5.67;;
10098;SDS011;5089;42.656;23.374;2022-07-29T03:12:19;6.53;;;6.00;;
10098;SDS011;5089;42.656;23.374;2022-07-29T03:14:46;6.57;;;5.63;;
10098;SDS011;5089;42.656;23.374;2022-07-29T03:17:15;8.63;;;5.90;;
10098;SDS011;5089;42.656;23.374;2022-07-29T03:19:43;12.77;;;5.90;;
10098;SDS011;5089;42.656;23.374;2022-07-29T03:22:12;8.50;;;6.67;;
10098;SDS011;5089;42.656;23.374;2022-07-29T03:24:40;7.17;;;6.57;;
10098;SDS011;5089;42.656;23.374;2022-07-29T03:27:07;8.00;;;7.20;;
10098;SDS011;5089;42.656;23.374;2022-07-29T03:29:34;11.63;;;8.73;;
10098;SDS011;5089;42.656;23.374;2022-07-29T03:32:01;12.20;;;9.27;;
10098;SDS011;5089;42.656;23.374;2022-07-29T03:34:30;10.47;;;9.47;;
10098;SDS011;5089;42.656;23.374;2022-07-29T03:36:57;13.53;;;9.43;;
10098;SDS011;5089;42.656;23.374;2022-07-29T03:39:26;11.87;;;10.10;;
10098;SDS011;5089;42.656;23.374;2022-07-29T03:41:57;12.43;;;10.07;;
10098;SDS011;5089;42.656;23.374;2022-07-29T03:44:27;10.93;;;9.83;;
10098;SDS011;5089;42.656;23.374;2022-07-29T03:46:58;11.50;;;10.10;;
10098;SDS011;5089;42.656;23.374;2022-07-29T03:49:27;12.53;;;9.73;;
10098;SDS011;5089;42.656;23.374;2022-07-29T03:51:54;11.77;;;10.03;;
10098;SDS011;5089;42.656;23.374;2022-07-29T03:54:22;10.20;;;9.30;;
10098;SDS011;5089;42.656;23.374;2022-07-29T03:56:52;12.30;;;9.37;;
10098;SDS011;5089;42.656;23.374;2022-07-29T03:59:20;10.40;;;9.07;;
10098;SDS011;5089;42.656;23.374;2022-07-29T04:01:48;13.10;;;9.73;;
10098;SDS011;5089;42.656;23.374;2022-07-29T04:04:16;11.53;;;9.83;;
10098;SDS011;5089;42.656;23.374;2022-07-29T04:06:43;14.27;;;10.40;;
10098;SDS011;5089;42.656;23.374;2022-07-29T04:09:12;10.43;;;9.40;;
10098;SDS011;5089;42.656;23.374;2022-07-29T04:11:39;10.00;;;9.10;;
10098;SDS011;5089;42.656;23.374;2022-07-29T04:14:09;12.60;;;9.37;;
10098;SDS011;5089;42.656;23.374;2022-07-29T04:16:36;13.27;;;10.30;;
10098;SDS011;5089;42.656;23.374;2022-07-29T04:19:04;10.57;;;9.20;;
10098;SDS011;5089;42.656;23.374;2022-07-29T04:21:30;8.57;;;7.77;;
10098;SDS011;5089;42.656;23.374;2022-07-29T04:23:57;10.00;;;8.07;;
10098;SDS011;5089;42.656;23.374;2022-07-29T04:26:25;9.93;;;8.20;;
10098;SDS011;5089;42.656;23.374;2022-07-29T04:43:40;8.03;;;5.97;;
10098;SDS011;5089;42.656;23.374;2022-07-29T04:46:07;22.63;;;12.50;;
10098;SDS011;5089;42.656;23.374;2022-07-29T04:48:34;26.20;;;14.07;;
10098;SDS011;5089;42.656;23.374;2022-07-29T04:51:04;89.50;;;43.43;;
10098;SDS011;5089;42.656;23.374;2022-07-29T04:53:31;43.50;;;25.70;;
10098;SDS011;5089;42.656;23.374;2022-07-29T04:55:58;25.80;;;14.60;;
10098;SDS011;5089;42.656;23.374;2022-07-29T04:58:36;12.10;;;7.40;;
10098;SDS011;5089;42.656;23.374;2022-07-29T05:01:09;9.37;;;6.67;;
10098;SDS011;5089;42.656;23.374;2022-07-29T05:03:35;7.60;;;6.60;;
10098;SDS011;5089;42.656;23.374;2022-07-29T05:06:02;6.80;;;5.83;;
10098;SDS011;5089;42.656;23.374;2022-07-29T05:08:29;11.30;;;7.03;;
10098;SDS011;5089;42.656;23.374;2022-07-29T05:10:56;9.43;;;5.83;;
10098;SDS011;5089;42.656;23.374;2022-07-29T05:13:24;7.23;;;6.43;;
10098;SDS011;5089;42.656;23.374;2022-07-29T05:15:59;8.67;;;7.57;;
10098;SDS011;5089;42.656;23.374;2022-07-29T05:18:29;8.77;;;6.27;;
10098;SDS011;5089;42.656;23.374;2022-07-29T05:20:58;11.90;;;6.20;;
10098;SDS011;5089;42.656;23.374;2022-07-29T05:23:31;12.17;;;7.53;;
10098;SDS011;5089;42.656;23.374;2022-07-29T05:26:28;6.30;;;5.80;;
10098;SDS011;5089;42.656;23.374;2022-07-29T05:28:54;8.63;;;6.03;;
10098;SDS011;5089;42.656;23.374;2022-07-29T05:31:23;9.00;;;5.60;;
10098;SDS011;5089;42.656;23.374;2022-07-29T05:33:50;8.17;;;5.73;;
10098;SDS011;5089;42.656;23.374;2022-07-29T05:36:19;7.97;;;5.50;;
10098;SDS011;5089;42.656;23.374;2022-07-29T05:38:46;7.37;;;6.07;;
10098;SDS011;5089;42.656;23.374;2022-07-29T05:41:13;27.23;;;16.40;;
10098;SDS011;5089;42.656;23.374;2022-07-29T05:43:40;23.40;;;12.40;;
10098;SDS011;5089;42.656;23.374;2022-07-29T05:46:09;8.20;;;7.37;;
10098;SDS011;5089;42.656;23.374;2022-07-29T05:48:38;16.27;;;9.43;;
10098;SDS011;5089;42.656;23.374;2022-07-29T05:51:05;11.03;;;7.73;;
10098;SDS011;5089;42.656;23.374;2022-07-29T05:53:31;15.77;;;8.67;;
10098;SDS011;5089;42.656;23.374;2022-07-29T05:56:03;10.67;;;7.43;;
10098;SDS011;5089;42.656;23.374;2022-07-29T06:00:59;7.93;;;6.77;;
10098;SDS011;5089;42.656;23.374;2022-07-29T06:01:59;8.60;;;6.40;;
10098;SDS011;5089;42.656;23.374;2022-07-29T06:05:02;10.50;;;6.40;;
10098;SDS011;5089;42.656;23.374;2022-07-29T06:07:45;6.93;;;6.30;;
10098;SDS011;5089;42.656;23.374;2022-07-29T06:10:27;7.03;;;6.30;;
10098;SDS011;5089;42.656;23.374;2022-07-29T06:13:03;9.83;;;5.93;;
10098;SDS011;5089;42.656;23.374;2022-07-29T06:15:31;13.90;;;9.47;;
10098;SDS011;5089;42.656;23.374;2022-07-29T06:17:59;10.13;;;6.30;;
10098;SDS011;5089;42.656;23.374;2022-07-29T06:20:28;17.50;;;10.93;;
10098;SDS011;5089;42.656;23.374;2022-07-29T06:22:58;13.63;;;10.00;;
10098;SDS011;5089;42.656;23.374;2022-07-29T06:26:09;6.13;;;5.63;;
10098;SDS011;5089;42.656;23.374;2022-07-29T06:28:38;8.07;;;6.03;;
10098;SDS011;5089;42.656;23.374;2022-07-29T06:37:11;29.67;;;14.93;;
10098;SDS011;5089;42.656;23.374;2022-07-29T06:40:01;9.50;;;6.77;;
10098;SDS011;5089;42.656;23.374;2022-07-29T06:43:03;8.30;;;7.30;;
10098;SDS011;5089;42.656;23.374;2022-07-29T07:02:03;14.90;;;9.20;;
10098;SDS011;5089;42.656;23.374;2022-07-29T07:04:30;8.70;;;5.80;;
10098;SDS011;5089;42.656;23.374;2022-07-29T07:06:57;10.53;;;5.37;;
10098;SDS011;5089;42.656;23.374;2022-07-29T07:09:24;6.77;;;5.13;;
10098;SDS011;5089;42.656;23.374;2022-07-29T07:11:51;7.70;;;6.03;;
10098;SDS011;5089;42.656;23.374;2022-07-29T07:14:18;11.50;;;6.00;;
10098;SDS011;5089;42.656;23.374;2022-07-29T07:16:58;5.83;;;4.70;;
10098;SDS011;5089;42.656;23.374;2022-07-29T07:19:45;8.77;;;7.30;;
10098;SDS011;5089;42.656;23.374;2022-07-29T07:22:20;7.97;;;5.23;;
10098;SDS011;5089;42.656;23.374;2022-07-29T07:24:47;9.40;;;4.50;;
10098;SDS011;5089;42.656;23.374;2022-07-29T07:27:14;5.03;;;4.10;;
10098;SDS011;5089;42.656;23.374;2022-07-29T07:29:41;9.43;;;5.77;;
10098;SDS011;5089;42.656;23.374;2022-07-29T07:32:10;9.70;;;5.77;;
10098;SDS011;5089;42.656;23.374;2022-07-29T07:34:39;13.10;;;9.27;;
10098;SDS011;5089;42.656;23.374;2022-07-29T07:37:13;6.50;;;5.20;;
10098;SDS011;5089;42.656;23.374;2022-07-29T07:39:47;6.87;;;5.80;;
10098;SDS011;5089;42.656;23.374;2022-07-29T07:42:15;10.33;;;6.90;;
10098;SDS011;5089;42.656;23.374;2022-07-29T07:44:44;5.77;;;4.47;;
10098;SDS011;5089;42.656;23.374;2022-07-29T07:47:15;5.63;;;4.93;;
10098;SDS011;5089;42.656;23.374;2022-07-29T07:49:49;8.77;;;5.00;;
10098;SDS011;5089;42.656;23.374;2022-07-29T07:52:22;6.73;;;5.93;;
10098;SDS011;5089;42.656;23.374;2022-07-29T07:54:56;9.83;;;7.17;;
10098;SDS011;5089;42.656;23.374;2022-07-29T07:57:31;9.27;;;5.10;;
10098;SDS011;5089;42.656;23.374;2022-07-29T08:00:02;3.87;;;3.57;;
10098;SDS011;5089;42.656;23.374;2022-07-29T08:02:35;4.40;;;3.80;;
10098;SDS011;5089;42.656;23.374;2022-07-29T08:05:02;4.63;;;3.40;;
10098;SDS011;5089;42.656;23.374;2022-07-29T08:07:29;3.30;;;3.00;;
10098;SDS011;5089;42.656;23.374;2022-07-29T08:09:56;7.47;;;3.57;;
10098;SDS011;5089;42.656;23.374;2022-07-29T08:12:23;4.23;;;3.40;;
10098;SDS011;5089;42.656;23.374;2022-07-29T08:14:50;3.90;;;3.57;;
10098;SDS011;5089;42.656;23.374;2022-07-29T08:17:21;4.73;;;3.20;;
10098;SDS011;5089;42.656;23.374;2022-07-29T08:19:54;4.63;;;3.27;;
10098;SDS011;5089;42.656;23.374;2022-07-29T08:22:21;3.73;;;3.43;;
10098;SDS011;5089;42.656;23.374;2022-07-29T08:24:48;3.20;;;3.00;;
10098;SDS011;5089;42.656;23.374;2022-07-29T08:27:23;3.10;;;2.90;;
10098;SDS011;5089;42.656;23.374;2022-07-29T08:29:51;5.13;;;3.20;;
10098;SDS011;5089;42.656;23.374;2022-07-29T08:32:18;3.77;;;3.00;;
10098;SDS011;5089;42.656;23.374;2022-07-29T08:34:45;3.90;;;2.70;;
10098;SDS011;5089;42.656;23.374;2022-07-29T08:37:14;7.13;;;4.37;;
10098;SDS011;5089;42.656;23.374;2022-07-29T08:39:41;7.60;;;4.80;;
10098;SDS011;5089;42.656;23.374;2022-07-29T08:42:10;6.27;;;4.83;;
10098;SDS011;5089;42.656;23.374;2022-07-29T08:44:37;14.87;;;8.70;;
10098;SDS011;5089;42.656;23.374;2022-07-29T08:47:08;4.37;;;2.80;;
10098;SDS011;5089;42.656;23.374;2022-07-29T08:49:35;3.30;;;3.00;;
10098;SDS011;5089;42.656;23.374;2022-07-29T08:52:03;5.20;;;2.90;;
10098;SDS011;5089;42.656;23.374;2022-07-29T08:54:31;5.33;;;3.20;;
10098;SDS011;5089;42.656;23.374;2022-07-29T08:56:59;3.10;;;2.77;;
10098;SDS011;5089;42.656;23.374;2022-07-29T08:59:27;3.70;;;2.73;;
10098;SDS011;5089;42.656;23.374;2022-07-29T09:01:58;3.40;;;3.07;;
10098;SDS011;5089;42.656;23.374;2022-07-29T09:04:27;21.33;;;11.90;;
10098;SDS011;5089;42.656;23.374;2022-07-29T09:07:01;4.40;;;3.60;;
10098;SDS011;5089;42.656;23.374;2022-07-29T09:09:33;8.50;;;4.10;;
10098;SDS011;5089;42.656;23.374;2022-07-29T09:12:00;7.50;;;4.80;;
10098;SDS011;5089;42.656;23.374;2022-07-29T09:14:29;4.20;;;2.87;;
10098;SDS011;5089;42.656;23.374;2022-07-29T09:16:56;3.93;;;3.60;;
10098;SDS011;5089;42.656;23.374;2022-07-29T09:19:24;19.53;;;9.40;;
10098;SDS011;5089;42.656;23.374;2022-07-29T09:21:56;5.70;;;4.27;;
10098;SDS011;5089;42.656;23.374;2022-07-29T09:24:29;8.30;;;5.20;;
10098;SDS011;5089;42.656;23.374;2022-07-29T09:27:08;4.60;;;3.40;;
10098;SDS011;5089;42.656;23.374;2022-07-29T09:29:58;4.00;;;3.60;;
10098;SDS011;5089;42.656;23.374;2022-07-29T09:32:26;5.53;;;4.27;;
10098;SDS011;5089;42.656;23.374;2022-07-29T09:37:42;4.10;;;3.40;;
10098;SDS011;5089;42.656;23.374;2022-07-29T09:42:45;4.07;;;3.70;;
10098;SDS011;5089;42.656;23.374;2022-07-29T09:45:25;5.10;;;3.80;;
10098;SDS011;5089;42.656;23.374;2022-07-29T09:50:41;4.10;;;3.70;;
10098;SDS011;5089;42.656;23.374;2022-07-29T09:53:09;4.07;;;3.47;;
10098;SDS011;5089;42.656;23.374;2022-07-29T09:55:47;7.10;;;4.03;;
10098;SDS011;5089;42.656;23.374;2022-07-29T10:03:52;7.57;;;3.90;;
10098;SDS011;5089;42.656;23.374;2022-07-29T10:06:22;6.93;;;4.70;;
10098;SDS011;5089;42.656;23.374;2022-07-29T10:08:49;5.90;;;4.13;;
10098;SDS011;5089;42.656;23.374;2022-07-29T10:11:16;6.80;;;3.30;;
10098;SDS011;5089;42.656;23.374;2022-07-29T10:13:46;4.47;;;3.30;;
10098;SDS011;5089;42.656;23.374;2022-07-29T10:16:15;3.67;;;3.30;;
10098;SDS011;5089;42.656;23.374;2022-07-29T10:18:43;3.43;;;3.20;;
10098;SDS011;5089;42.656;23.374;2022-07-29T10:21:11;5.70;;;3.30;;
10098;SDS011;5089;42.656;23.374;2022-07-29T10:23:39;5.83;;;4.00;;
10098;SDS011;5089;42.656;23.374;2022-07-29T10:26:07;4.57;;;4.17;;
10098;SDS011;5089;42.656;23.374;2022-07-29T10:53:24;5.53;;;3.67;;
10098;SDS011;5089;42.656;23.374;2022-07-29T10:56:24;3.60;;;2.87;;
10098;SDS011;5089;42.656;23.374;2022-07-29T11:11:52;3.77;;;3.03;;
10098;SDS011;5089;42.656;23.374;2022-07-29T11:14:20;3.40;;;3.13;;
10098;SDS011;5089;42.656;23.374;2022-07-29T11:17:27;3.83;;;2.90;;
10098;SDS011;5089;42.656;23.374;2022-07-29T11:22:54;3.40;;;3.10;;
10098;SDS011;5089;42.656;23.374;2022-07-29T11:28:16;5.53;;;4.13;;
10098;SDS011;5089;42.656;23.374;2022-07-29T11:30:48;6.47;;;4.00;;
10098;SDS011;5089;42.656;23.374;2022-07-29T11:33:28;5.07;;;3.90;;
10098;SDS011;5089;42.656;23.374;2022-07-29T11:36:06;4.10;;;3.50;;
10098;SDS011;5089;42.656;23.374;2022-07-29T11:38:34;4.27;;;3.90;;
10098;SDS011;5089;42.656;23.374;2022-07-29T11:44:05;4.60;;;3.40;;
10098;SDS011;5089;42.656;23.374;2022-07-29T11:46:42;4.50;;;3.50;;
10098;SDS011;5089;42.656;23.374;2022-07-29T11:49:18;16.13;;;9.60;;
10098;SDS011;5089;42.656;23.374;2022-07-29T11:51:50;4.23;;;3.67;;
10098;SDS011;5089;42.656;23.374;2022-07-29T11:54:21;4.33;;;3.90;;
10098;SDS011;5089;42.656;23.374;2022-07-29T11:56:56;7.47;;;4.30;;
10098;SDS011;5089;42.656;23.374;2022-07-29T11:59:26;4.07;;;3.77;;
10098;SDS011;5089;42.656;23.374;2022-07-29T12:01:53;10.83;;;6.87;;
10098;SDS011;5089;42.656;23.374;2022-07-29T12:04:20;5.23;;;4.60;;
10098;SDS011;5089;42.656;23.374;2022-07-29T12:06:49;4.10;;;3.83;;
10098;SDS011;5089;42.656;23.374;2022-07-29T12:09:20;4.70;;;4.30;;
10098;SDS011;5089;42.656;23.374;2022-07-29T12:11:57;4.00;;;3.70;;
10098;SDS011;5089;42.656;23.374;2022-07-29T12:14:26;3.83;;;3.50;;
10098;SDS011;5089;42.656;23.374;2022-07-29T12:36:29;4.40;;;4.03;;
10098;SDS011;5089;42.656;23.374;2022-07-29T12:39:01;4.47;;;3.87;;
10098;SDS011;5089;42.656;23.374;2022-07-29T12:41:39;4.70;;;4.40;;
10098;SDS011;5089;42.656;23.374;2022-07-29T12:44:12;5.80;;;3.77;;
10098;SDS011;5089;42.656;23.374;2022-07-29T12:46:41;4.33;;;3.93;;
10098;SDS011;5089;42.656;23.374;2022-07-29T12:49:15;5.40;;;4.80;;
10098;SDS011;5089;42.656;23.374;2022-07-29T12:55:03;6.70;;;4.90;;
10098;SDS011;5089;42.656;23.374;2022-07-29T12:57:31;5.20;;;4.80;;
10098;SDS011;5089;42.656;23.374;2022-07-29T12:59:59;4.53;;;4.10;;
10098;SDS011;5089;42.656;23.374;2022-07-29T13:02:28;4.87;;;4.37;;
10098;SDS011;5089;42.656;23.374;2022-07-29T13:05:04;4.97;;;4.50;;
10098;SDS011;5089;42.656;23.374;2022-07-29T13:07:35;6.50;;;5.50;;
10098;SDS011;5089;42.656;23.374;2022-07-29T13:10:13;4.57;;;4.17;;
10098;SDS011;5089;42.656;23.374;2022-07-29T13:13:01;5.77;;;4.90;;
10098;SDS011;5089;42.656;23.374;2022-07-29T13:15:29;5.50;;;4.40;;
10098;SDS011;5089;42.656;23.374;2022-07-29T13:18:01;5.57;;;4.77;;
10098;SDS011;5089;42.656;23.374;2022-07-29T13:20:32;7.20;;;4.77;;
10098;SDS011;5089;42.656;23.374;2022-07-29T13:23:00;4.70;;;3.80;;
10098;SDS011;5089;42.656;23.374;2022-07-29T13:25:27;6.33;;;3.97;;
10098;SDS011;5089;42.656;23.374;2022-07-29T13:27:56;4.87;;;4.17;;
10098;SDS011;5089;42.656;23.374;2022-07-29T13:30:24;9.60;;;7.30;;
10098;SDS011;5089;42.656;23.374;2022-07-29T13:32:52;5.03;;;4.20;;
10098;SDS011;5089;42.656;23.374;2022-07-29T13:35:20;4.50;;;4.10;;
10098;SDS011;5089;42.656;23.374;2022-07-29T13:37:48;4.43;;;4.03;;
10098;SDS011;5089;42.656;23.374;2022-07-29T13:40:15;4.50;;;3.97;;
10098;SDS011;5089;42.656;23.374;2022-07-29T13:42:42;4.83;;;4.10;;
10098;SDS011;5089;42.656;23.374;2022-07-29T13:45:09;4.53;;;4.13;;
10098;SDS011;5089;42.656;23.374;2022-07-29T13:47:37;4.87;;;4.47;;
10098;SDS011;5089;42.656;23.374;2022-07-29T13:50:04;4.40;;;4.00;;
10098;SDS011;5089;42.656;23.374;2022-07-29T13:52:34;4.20;;;3.87;;
10098;SDS011;5089;42.656;23.374;2022-07-29T13:55:04;4.60;;;4.20;;
10098;SDS011;5089;42.656;23.374;2022-07-29T13:57:34;4.27;;;3.97;;
10098;SDS011;5089;42.656;23.374;2022-07-29T14:00:01;5.90;;;4.20;;
10098;SDS011;5089;42.656;23.374;2022-07-29T14:02:28;4.63;;;4.23;;
10098;SDS011;5089;42.656;23.374;2022-07-29T14:04:55;4.87;;;4.17;;
10098;SDS011;5089;42.656;23.374;2022-07-29T14:07:22;5.33;;;4.23;;
10098;SDS011;5089;42.656;23.374;2022-07-29T14:09:49;4.93;;;4.50;;
10098;SDS011;5089;42.656;23.374;2022-07-29T14:12:18;4.27;;;3.87;;
10098;SDS011;5089;42.656;23.374;2022-07-29T14:14:46;4.10;;;3.80;;
10098;SDS011;5089;42.656;23.374;2022-07-29T14:17:15;4.87;;;4.37;;
10098;SDS011;5089;42.656;23.374;2022-07-29T14:35:47;4.60;;;4.20;;
10098;SDS011;5089;42.656;23.374;2022-07-29T14:40:53;4.40;;;4.10;;
10098;SDS011;5089;42.656;23.374;2022-07-29T14:45:55;5.80;;;4.47;;
10098;SDS011;5089;42.656;23.374;2022-07-29T14:48:23;5.00;;;4.60;;
10098;SDS011;5089;42.656;23.374;2022-07-29T14:50:50;9.50;;;4.47;;
10098;SDS011;5089;42.656;23.374;2022-07-29T14:53:16;4.83;;;4.50;;
10098;SDS011;5089;42.656;23.374;2022-07-29T14:55:43;5.70;;;4.77;;
10098;SDS011;5089;42.656;23.374;2022-07-29T14:58:10;5.20;;;4.67;;
10098;SDS011;5089;42.656;23.374;2022-07-29T15:00:37;4.87;;;4.47;;
10098;SDS011;5089;42.656;23.374;2022-07-29T15:03:07;5.53;;;5.03;;
10098;SDS011;5089;42.656;23.374;2022-07-29T15:05:39;4.83;;;4.43;;
10098;SDS011;5089;42.656;23.374;2022-07-29T15:08:06;8.73;;;5.30;;
10098;SDS011;5089;42.656;23.374;2022-07-29T15:10:36;9.57;;;7.03;;
10098;SDS011;5089;42.656;23.374;2022-07-29T15:13:07;6.53;;;5.60;;
10098;SDS011;5089;42.656;23.374;2022-07-29T15:15:34;5.10;;;4.70;;
10098;SDS011;5089;42.656;23.374;2022-07-29T15:18:03;6.50;;;4.90;;
10098;SDS011;5089;42.656;23.374;2022-07-29T15:20:31;8.27;;;6.57;;
10098;SDS011;5089;42.656;23.374;2022-07-29T15:23:00;4.87;;;4.40;;
10098;SDS011;5089;42.656;23.374;2022-07-29T15:25:28;4.63;;;4.23;;
10098;SDS011;5089;42.656;23.374;2022-07-29T15:27:55;6.17;;;4.63;;
10098;SDS011;5089;42.656;23.374;2022-07-29T15:30:24;6.63;;;4.30;;
10098;SDS011;5089;42.656;23.374;2022-07-29T15:32:51;4.40;;;4.00;;
10098;SDS011;5089;42.656;23.374;2022-07-29T15:35:21;4.50;;;4.10;;
10098;SDS011;5089;42.656;23.374;2022-07-29T15:37:48;4.20;;;3.80;;
10098;SDS011;5089;42.656;23.374;2022-07-29T15:40:16;4.30;;;3.90;;
10098;SDS011;5089;42.656;23.374;2022-07-29T15:42:43;5.73;;;4.10;;
10098;SDS011;5089;42.656;23.374;2022-07-29T15:45:24;4.47;;;4.00;;
10098;SDS011;5089;42.656;23.374;2022-07-29T15:47:53;5.07;;;3.90;;
10098;SDS011;5089;42.656;23.374;2022-07-29T15:50:49;5.77;;;3.93;;
10098;SDS011;5089;42.656;23.374;2022-07-29T15:53:18;4.03;;;3.63;;
10098;SDS011;5089;42.656;23.374;2022-07-29T15:55:46;4.40;;;4.10;;
10098;SDS011;5089;42.656;23.374;2022-07-29T15:58:13;9.20;;;4.63;;
10098;SDS011;5089;42.656;23.374;2022-07-29T16:03:15;6.60;;;5.80;;
10098;SDS011;5089;42.656;23.374;2022-07-29T16:05:42;9.40;;;5.77;;
10098;SDS011;5089;42.656;23.374;2022-07-29T16:08:09;9.90;;;5.90;;
10098;SDS011;5089;42.656;23.374;2022-07-29T16:10:36;4.37;;;4.00;;
10098;SDS011;5089;42.656;23.374;2022-07-29T16:13:04;9.60;;;5.20;;
10098;SDS011;5089;42.656;23.374;2022-07-29T16:15:31;6.83;;;5.07;;
10098;SDS011;5089;42.656;23.374;2022-07-29T16:17:59;6.57;;;4.30;;
10098;SDS011;5089;42.656;23.374;2022-07-29T16:20:26;4.17;;;3.80;;
10098;SDS011;5089;42.656;23.374;2022-07-29T16:22:53;10.63;;;5.63;;
10098;SDS011;5089;42.656;23.374;2022-07-29T16:25:20;6.50;;;5.17;;
10098;SDS011;5089;42.656;23.374;2022-07-29T16:27:47;5.07;;;4.30;;
10098;SDS011;5089;42.656;23.374;2022-07-29T16:30:15;4.17;;;3.77;;
10098;SDS011;5089;42.656;23.374;2022-07-29T16:32:42;6.27;;;4.53;;
10098;SDS011;5089;42.656;23.374;2022-07-29T16:35:09;5.13;;;4.20;;
10098;SDS011;5089;42.656;23.374;2022-07-29T16:37:36;5.07;;;4.57;;
10098;SDS011;5089;42.656;23.374;2022-07-29T16:40:04;7.07;;;5.33;;
10098;SDS011;5089;42.656;23.374;2022-07-29T16:42:33;7.70;;;6.00;;
10098;SDS011;5089;42.656;23.374;2022-07-29T16:45:03;5.57;;;4.93;;
10098;SDS011;5089;42.656;23.374;2022-07-29T16:47:39;4.20;;;3.80;;
10098;SDS011;5089;42.656;23.374;2022-07-29T16:50:07;4.83;;;4.43;;
10098;SDS011;5089;42.656;23.374;2022-07-29T16:52:39;9.33;;;7.37;;
10098;SDS011;5089;42.656;23.374;2022-07-29T16:55:06;5.57;;;5.07;;
10098;SDS011;5089;42.656;23.374;2022-07-29T16:57:35;7.73;;;5.80;;
10098;SDS011;5089;42.656;23.374;2022-07-29T17:00:02;10.83;;;7.63;;
10098;SDS011;5089;42.656;23.374;2022-07-29T17:02:30;5.77;;;4.73;;
10098;SDS011;5089;42.656;23.374;2022-07-29T17:05:01;6.67;;;4.63;;
10098;SDS011;5089;42.656;23.374;2022-07-29T17:07:28;8.30;;;4.60;;
10098;SDS011;5089;42.656;23.374;2022-07-29T17:09:54;11.00;;;6.07;;
10098;SDS011;5089;42.656;23.374;2022-07-29T17:12:22;4.53;;;4.13;;
10098;SDS011;5089;42.656;23.374;2022-07-29T17:14:49;7.87;;;4.00;;
10098;SDS011;5089;42.656;23.374;2022-07-29T17:17:16;4.83;;;4.33;;
10098;SDS011;5089;42.656;23.374;2022-07-29T17:19:43;6.53;;;5.70;;
10098;SDS011;5089;42.656;23.374;2022-07-29T17:22:11;5.73;;;4.90;;
10098;SDS011;5089;42.656;23.374;2022-07-29T17:24:37;4.93;;;4.00;;
10098;SDS011;5089;42.656;23.374;2022-07-29T17:27:05;8.00;;;5.20;;
10098;SDS011;5089;42.656;23.374;2022-07-29T17:29:32;8.37;;;6.43;;
10098;SDS011;5089;42.656;23.374;2022-07-29T17:32:00;7.00;;;5.60;;
10098;SDS011;5089;42.656;23.374;2022-07-29T17:34:27;6.30;;;4.87;;
10098;SDS011;5089;42.656;23.374;2022-07-29T17:36:54;6.23;;;4.20;;